Time;durP1;ratioP1;P1;durP2;ratioP2;P2;SDS_P1;SDS_P2;PMS_P1;PMS_P2;Temp;Humidity;BMP_temperature;BMP_pressure;BME280_temperature;BME280_humidity;BME280_pressure;Samples;Min_cycle;Max_cycle;Signal;HPM_P1;HPM_P2
2022/06/26 00:00:34;;;;;;;;;30.33;30.00;;;;;24.79;50.58;100804.83;110245;1265;18855;-51
2022/06/26 00:03:06;;;;;;;;;32.67;32.33;;;;;24.82;50.60;100801.61;110280;1264;18913;-51
2022/06/26 00:05:33;;;;;;;;;33.00;33.00;;;;;24.93;50.39;100806.77;110281;1265;19428;-50
2022/06/26 00:08:00;;;;;;;;;30.33;30.00;;;;;24.95;50.25;100807.29;110287;1264;18915;-51
2022/06/26 00:10:28;;;;;;;;;34.67;32.67;;;;;24.64;50.97;100801.50;110210;1265;19091;-50
2022/06/26 00:12:55;;;;;;;;;36.33;35.67;;;;;24.36;51.58;100808.23;110276;1264;26043;-50
2022/06/26 00:15:22;;;;;;;;;36.67;33.33;;;;;24.42;51.66;100807.33;110245;1264;18769;-50
2022/06/26 00:17:49;;;;;;;;;35.67;33.67;;;;;24.53;51.26;100806.40;110261;1264;23307;-48
2022/06/26 00:20:16;;;;;;;;;31.67;31.67;;;;;24.73;50.95;100810.06;110264;1265;19458;-50
2022/06/26 00:22:44;;;;;;;;;30.00;29.00;;;;;24.82;50.80;100814.16;110290;1265;22835;-50
2022/06/26 00:25:11;;;;;;;;;30.33;28.33;;;;;24.77;50.64;100811.90;110330;1265;18797;-51
2022/06/26 00:27:38;;;;;;;;;29.67;28.33;;;;;24.86;50.56;100814.23;110275;1265;20813;-55
2022/06/26 00:30:06;;;;;;;;;33.00;32.00;;;;;24.89;50.47;100809.98;110279;1265;19405;-48
2022/06/26 00:32:33;;;;;;;;;32.33;31.67;;;;;24.83;50.53;100813.41;110275;1265;18932;-51
2022/06/26 00:35:00;;;;;;;;;32.00;30.33;;;;;24.87;50.44;100811.83;110291;1264;22852;-50
2022/06/26 00:37:28;;;;;;;;;33.00;29.50;;;;;24.87;50.36;100809.67;110264;1265;20023;-49
2022/06/26 00:39:55;;;;;;;;;32.33;30.67;;;;;24.96;50.22;100813.27;110305;1264;20401;-50
2022/06/26 00:42:22;;;;;;;;;32.67;30.67;;;;;24.92;50.38;100811.05;110284;1265;19656;-50
2022/06/26 00:44:52;;;;;;;;;34.67;33.00;;;;;24.81;50.67;100811.55;110181;1265;18803;-51
2022/06/26 00:47:19;;;;;;;;;34.50;33.00;;;;;24.75;50.62;100814.80;110222;1264;18827;-50
2022/06/26 00:49:46;;;;;;;;;32.00;28.33;;;;;24.75;50.82;100818.21;110250;1264;19569;-50
2022/06/26 00:52:14;;;;;;;;;33.33;29.67;;;;;24.61;51.29;100819.65;110327;1264;21136;-50
2022/06/26 00:54:41;;;;;;;;;32.00;30.00;;;;;24.73;50.99;100821.54;110212;1264;23447;-50
2022/06/26 00:57:08;;;;;;;;;32.33;29.67;;;;;24.84;50.74;100826.20;110264;1264;22309;-51
2022/06/26 00:59:36;;;;;;;;;33.33;32.67;;;;;24.91;50.52;100824.85;110161;1265;18846;-51
2022/06/26 01:02:03;;;;;;;;;30.00;29.00;;;;;24.92;50.64;100822.86;110256;1264;19037;-49
2022/06/26 01:04:30;;;;;;;;;32.00;31.67;;;;;24.86;50.61;100820.38;110264;1265;19583;-47
2022/06/26 01:06:57;;;;;;;;;33.67;32.67;;;;;24.71;50.94;100817.98;110268;1264;19649;-50
2022/06/26 01:09:24;;;;;;;;;34.33;33.00;;;;;24.83;50.74;100822.31;110285;1264;18807;-51
2022/06/26 01:11:52;;;;;;;;;30.00;29.00;;;;;24.87;50.76;100816.98;110261;1264;20258;-52
2022/06/26 01:14:19;;;;;;;;;31.33;29.00;;;;;24.86;50.60;100818.91;110231;1265;19006;-50
2022/06/26 01:16:47;;;;;;;;;34.00;30.00;;;;;24.95;50.60;100824.83;110219;1265;18948;-52
2022/06/26 01:19:14;;;;;;;;;33.00;32.00;;;;;25.01;50.45;100823.00;110154;1264;19608;-49
2022/06/26 01:21:41;;;;;;;;;32.00;31.00;;;;;25.00;50.28;100825.11;110225;1265;20062;-50
2022/06/26 01:24:08;;;;;;;;;34.67;33.67;;;;;24.80;50.78;100828.23;110295;1264;20668;-50
2022/06/26 01:26:36;;;;;;;;;29.00;29.00;;;;;24.67;51.24;100829.05;110263;1264;19951;-50
2022/06/26 01:29:03;;;;;;;;;34.00;30.33;;;;;24.64;51.25;100828.39;110274;1264;22273;-52
2022/06/26 01:31:32;;;;;;;;;32.00;30.33;;;;;24.72;51.25;100827.14;110302;1264;18912;-51
2022/06/26 01:34:00;;;;;;;;;31.00;29.50;;;;;24.72;51.16;100827.89;110335;1264;19763;-51
2022/06/26 01:36:27;;;;;;;;;34.67;31.00;;;;;24.64;51.28;100825.98;110264;1265;18741;-50
2022/06/26 01:38:54;;;;;;;;;30.50;30.00;;;;;24.67;51.24;100827.24;110260;1265;19762;-50
2022/06/26 01:41:21;;;;;;;;;33.00;31.67;;;;;24.62;51.34;100828.29;110285;1265;19548;-51
2022/06/26 01:43:48;;;;;;;;;36.00;32.33;;;;;24.37;51.80;100828.98;110201;1264;18852;-50
2022/06/26 01:46:16;;;;;;;;;31.33;30.33;;;;;24.54;51.60;100826.92;110301;1265;18984;-50
2022/06/26 01:48:43;;;;;;;;;32.00;29.67;;;;;24.49;51.66;100826.73;110295;1264;19804;-50
2022/06/26 01:51:10;;;;;;;;;32.00;30.00;;;;;24.47;51.80;100827.31;110230;1264;19261;-50
2022/06/26 01:53:37;;;;;;;;;32.00;31.33;;;;;24.55;51.48;100826.60;110231;1265;18808;-50
2022/06/26 01:56:05;;;;;;;;;33.33;33.33;;;;;24.62;51.39;100829.31;110243;1265;20633;-52
2022/06/26 01:58:32;;;;;;;;;32.00;32.00;;;;;24.63;51.44;100835.22;110131;1265;18813;-50
2022/06/26 02:01:00;;;;;;;;;32.67;32.00;;;;;24.55;51.67;100835.63;110224;1265;19094;-50
2022/06/26 02:03:27;;;;;;;;;34.33;33.00;;;;;24.50;51.68;100841.40;110171;1265;19546;-51
2022/06/26 02:05:54;;;;;;;;;30.33;29.00;;;;;24.46;51.68;100844.52;110159;1265;24171;-52
2022/06/26 02:08:22;;;;;;;;;30.67;30.00;;;;;24.25;52.31;100843.66;110237;1264;19031;-51
2022/06/26 02:13:37;;;;;;;;;31.67;31.33;;;;;24.48;51.80;100839.44;110233;1264;18747;-52
2022/06/26 02:16:04;;;;;;;;;38.00;33.00;;;;;24.51;51.57;100842.01;110339;1264;18961;-49
2022/06/26 02:18:32;;;;;;;;;31.67;31.00;;;;;24.33;52.08;100846.44;110234;1264;19469;-51
2022/06/26 02:20:59;;;;;;;;;33.00;32.00;;;;;24.35;51.94;100843.25;110234;1264;20126;-51
2022/06/26 02:23:26;;;;;;;;;32.00;32.00;;;;;24.40;51.90;100845.96;110254;1265;19364;-48
2022/06/26 02:25:53;;;;;;;;;32.00;31.33;;;;;24.42;51.95;100846.44;110197;1265;19614;-49
2022/06/26 02:28:20;;;;;;;;;38.00;36.00;;;;;24.44;51.93;100848.02;110287;1264;21241;-52
2022/06/26 02:30:49;;;;;;;;;36.67;35.33;;;;;24.42;51.94;100847.87;110282;1265;18958;-48
2022/06/26 02:33:16;;;;;;;;;32.50;32.00;;;;;24.30;52.10;100851.08;110269;1265;20663;-49
2022/06/26 02:35:43;;;;;;;;;32.50;32.00;;;;;24.21;52.38;100850.13;110208;1264;22227;-48
2022/06/26 02:38:10;;;;;;;;;31.67;31.67;;;;;24.18;52.52;100856.60;110258;1264;22438;-50
2022/06/26 02:40:38;;;;;;;;;30.00;28.33;;;;;24.09;52.77;100855.09;110141;1264;22297;-50
2022/06/26 02:43:05;;;;;;;;;33.67;32.00;;;;;23.97;53.15;100861.27;110317;1265;18857;-48
2022/06/26 02:45:32;;;;;;;;;31.33;31.00;;;;;23.97;53.43;100859.02;110241;1264;18906;-48
2022/06/26 02:47:59;;;;;;;;;30.00;30.00;;;;;24.01;53.22;100862.02;110226;1265;19616;-48
2022/06/26 02:50:27;;;;;;;;;31.67;31.67;;;;;24.11;52.95;100863.92;110211;1265;18802;-49
2022/06/26 02:52:54;;;;;;;;;33.00;32.67;;;;;24.09;52.93;100864.23;110258;1264;19647;-48
2022/06/26 02:55:21;;;;;;;;;31.00;31.00;;;;;23.95;53.31;100861.52;110241;1265;20074;-49
2022/06/26 02:57:49;;;;;;;;;31.00;30.33;;;;;23.97;53.26;100862.23;110244;1264;18815;-48
2022/06/26 03:00:16;;;;;;;;;35.67;34.00;;;;;23.99;53.34;100864.70;110230;1264;18862;-48
2022/06/26 03:02:43;;;;;;;;;36.33;34.33;;;;;23.98;53.23;100865.44;110250;1264;19633;-49
2022/06/26 03:05:10;;;;;;;;;33.67;31.00;;;;;23.91;53.35;100868.05;110249;1264;20206;-49
2022/06/26 03:07:38;;;;;;;;;35.00;32.00;;;;;23.90;53.55;100870.04;110251;1264;18947;-49
2022/06/26 03:10:05;;;;;;;;;31.00;30.00;;;;;23.73;53.93;100870.73;110307;1264;20980;-49
2022/06/26 03:12:32;;;;;;;;;34.33;33.33;;;;;23.83;53.60;100871.68;110204;1264;18923;-50
2022/06/26 03:15:00;;;;;;;;;33.33;32.33;;;;;23.53;54.14;100872.63;110198;1265;18935;-50
2022/06/26 03:17:28;;;;;;;;;34.00;32.00;;;;;23.54;54.28;100876.92;110225;1264;19603;-49
2022/06/26 03:19:55;;;;;;;;;33.00;32.00;;;;;23.65;54.08;100876.15;110272;1264;18937;-51
2022/06/26 03:22:22;;;;;;;;;34.33;30.33;;;;;23.58;54.15;100873.52;110269;1264;18737;-49
2022/06/26 03:24:49;;;;;;;;;31.00;29.00;;;;;23.40;54.51;100877.97;110283;1264;22166;-48
2022/06/26 03:27:16;;;;;;;;;32.00;30.67;;;;;23.54;54.38;100879.38;110243;1264;21891;-50
2022/06/26 03:29:44;;;;;;;;;30.67;30.67;;;;;23.58;54.13;100883.36;110279;1264;19080;-51
2022/06/26 03:32:11;;;;;;;;;33.50;31.00;;;;;23.55;54.27;100883.24;110270;1264;19616;-49
2022/06/26 03:34:38;;;;;;;;;30.00;29.50;;;;;23.53;54.37;100883.67;110238;1264;18746;-48
2022/06/26 03:37:05;;;;;;;;;33.00;31.00;;;;;23.67;54.11;100889.31;110308;1264;19428;-50
2022/06/26 03:39:33;;;;;;;;;34.33;33.00;;;;;23.65;54.01;100888.55;110292;1265;19649;-50
2022/06/26 03:42:01;;;;;;;;;33.50;32.50;;;;;23.43;54.56;100887.68;110239;1264;19002;-51
2022/06/26 03:44:28;;;;;;;;;30.00;28.50;;;;;23.46;54.72;100887.17;110259;1265;22202;-50
2022/06/26 03:46:55;;;;;;;;;30.00;29.00;;;;;23.47;54.71;100888.61;110275;1264;19652;-49
2022/06/26 03:49:23;;;;;;;;;31.67;30.00;;;;;23.61;54.53;100891.91;110260;1264;18708;-54
2022/06/26 03:51:50;;;;;;;;;35.00;31.67;;;;;23.75;53.94;100893.83;110318;1264;18794;-46
2022/06/26 03:54:18;;;;;;;;;35.33;33.00;;;;;23.61;54.15;100894.48;110255;1264;21609;-51
2022/06/26 03:56:45;;;;;;;;;33.00;32.00;;;;;23.39;54.78;100894.11;110250;1264;18764;-50
2022/06/26 03:59:12;;;;;;;;;35.00;33.67;;;;;23.57;54.48;100896.05;110231;1264;18828;-51
2022/06/26 04:01:40;;;;;;;;;33.50;31.50;;;;;23.39;54.60;100902.32;110249;1264;19457;-48
2022/06/26 04:04:07;;;;;;;;;32.50;30.00;;;;;23.08;55.58;100899.41;110322;1265;18881;-48
2022/06/26 04:06:34;;;;;;;;;35.00;34.00;;;;;22.99;55.96;100895.86;110265;1265;18885;-48
2022/06/26 04:09:02;;;;;;;;;36.33;33.00;;;;;22.97;55.88;100900.47;110263;1264;19531;-50
2022/06/26 04:11:29;;;;;;;;;33.00;33.00;;;;;23.02;55.80;100899.25;110233;1264;19143;-51
2022/06/26 04:13:56;;;;;;;;;34.33;33.33;;;;;23.09;55.73;100899.52;110260;1265;18932;-47
2022/06/26 04:16:24;;;;;;;;;35.50;35.00;;;;;23.24;55.29;100903.00;110291;1265;19760;-52
2022/06/26 04:18:51;;;;;;;;;35.00;33.33;;;;;23.28;55.30;100899.11;110292;1264;19025;-51
2022/06/26 04:21:18;;;;;;;;;37.67;33.33;;;;;23.36;55.05;100905.43;110286;1264;18931;-51
2022/06/26 04:23:45;;;;;;;;;35.67;34.67;;;;;23.54;54.61;100908.06;110222;1264;19595;-49
2022/06/26 04:26:13;;;;;;;;;37.00;34.67;;;;;23.58;54.59;100911.70;110276;1264;22290;-48
2022/06/26 04:28:40;;;;;;;;;37.50;36.50;;;;;23.65;54.28;100914.04;110272;1264;18856;-49
2022/06/26 04:31:07;;;;;;;;;34.00;33.00;;;;;23.40;55.01;100918.95;110302;1264;21813;-49
2022/06/26 04:33:34;;;;;;;;;35.67;33.67;;;;;23.30;55.41;100917.55;110276;1265;18916;-49
2022/06/26 04:36:01;;;;;;;;;36.33;35.33;;;;;23.41;55.23;100917.02;110240;1265;22242;-49
2022/06/26 04:38:29;;;;;;;;;35.33;35.33;;;;;23.40;55.40;100920.30;110244;1264;21362;-48
2022/06/26 04:40:56;;;;;;;;;34.00;33.33;;;;;23.32;55.55;100923.34;110275;1265;18764;-49
2022/06/26 04:43:24;;;;;;;;;37.00;34.67;;;;;23.47;55.38;100922.20;110276;1264;18930;-56
2022/06/26 04:45:52;;;;;;;;;37.00;34.67;;;;;23.74;54.74;100925.36;110344;1264;22827;-55
2022/06/26 04:48:19;;;;;;;;;34.33;33.67;;;;;23.61;54.98;100928.28;110225;1265;20042;-54
2022/06/26 04:50:46;;;;;;;;;33.00;31.00;;;;;23.51;55.34;100928.02;110231;1264;18874;-54
2022/06/26 04:53:14;;;;;;;;;37.67;34.33;;;;;23.57;55.07;100930.05;110256;1264;19654;-50
2022/06/26 04:55:41;;;;;;;;;33.67;33.00;;;;;23.54;55.25;100924.35;110260;1265;20373;-51
2022/06/26 04:58:09;;;;;;;;;34.50;34.00;;;;;23.56;55.18;100924.42;110291;1265;22551;-46
2022/06/26 05:00:36;;;;;;;;;35.00;34.00;;;;;23.56;55.13;100930.45;110254;1265;19569;-48
2022/06/26 05:03:03;;;;;;;;;37.00;34.33;;;;;23.50;55.31;100928.30;110249;1264;18675;-48
2022/06/26 05:05:30;;;;;;;;;35.00;33.50;;;;;23.66;54.93;100926.71;110259;1264;18982;-48
2022/06/26 05:07:58;;;;;;;;;31.33;30.00;;;;;23.84;54.56;100926.60;110272;1264;22309;-48
2022/06/26 05:10:25;;;;;;;;;33.50;31.00;;;;;24.09;53.87;100928.40;110288;1264;22172;-51
2022/06/26 05:12:52;;;;;;;;;35.33;32.33;;;;;24.19;53.74;100931.91;110292;1264;18905;-46
2022/06/26 05:15:19;;;;;;;;;34.67;34.00;;;;;24.17;53.62;100929.96;110230;1264;21496;-46
2022/06/26 05:17:47;;;;;;;;;33.67;32.33;;;;;24.05;53.69;100934.80;110279;1264;18839;-47
2022/06/26 05:20:14;;;;;;;;;34.67;33.67;;;;;23.90;54.13;100938.17;110219;1265;19137;-48
2022/06/26 05:22:41;;;;;;;;;33.33;30.00;;;;;23.92;54.08;100941.77;110276;1264;19692;-51
2022/06/26 05:25:08;;;;;;;;;37.33;32.33;;;;;23.91;53.89;100946.60;110314;1265;18744;-52
2022/06/26 05:27:36;;;;;;;;;38.00;34.33;;;;;23.90;54.02;100950.73;110281;1264;20266;-51
2022/06/26 05:30:03;;;;;;;;;36.00;33.33;;;;;23.89;54.10;100949.75;110248;1264;20901;-56
2022/06/26 05:32:30;;;;;;;;;35.33;34.67;;;;;24.01;53.86;100952.80;110259;1264;18710;-48
2022/06/26 05:34:57;;;;;;;;;34.00;32.67;;;;;24.11;53.65;100954.33;110263;1264;21852;-52
2022/06/26 05:37:25;;;;;;;;;34.67;32.33;;;;;24.25;53.30;100951.83;110320;1264;19458;-56
2022/06/26 05:39:52;;;;;;;;;31.67;30.67;;;;;24.46;52.93;100955.27;110299;1264;18764;-52
2022/06/26 05:42:19;;;;;;;;;30.67;29.00;;;;;24.64;52.53;100956.28;110276;1265;19009;-54
2022/06/26 05:44:46;;;;;;;;;39.67;35.00;;;;;24.77;52.30;100960.44;110278;1265;19794;-54
2022/06/26 05:47:14;;;;;;;;;34.00;33.33;;;;;24.83;52.05;100960.02;110247;1264;18872;-51
2022/06/26 05:49:41;;;;;;;;;39.50;36.00;;;;;24.98;52.04;100960.85;110222;1265;18767;-56
2022/06/26 05:52:08;;;;;;;;;33.33;28.67;;;;;24.99;51.90;100960.55;110328;1264;19780;-53
2022/06/26 05:54:35;;;;;;;;;34.67;32.33;;;;;25.03;51.72;100958.37;110267;1264;23461;-54
2022/06/26 05:57:03;;;;;;;;;34.00;32.00;;;;;25.06;51.78;100962.49;110255;1265;19015;-54
2022/06/26 05:59:30;;;;;;;;;37.00;36.00;;;;;25.03;51.59;100963.56;110135;1265;19523;-55
2022/06/26 06:01:57;;;;;;;;;35.00;34.00;;;;;24.85;51.72;100963.83;110190;1264;19553;-53
2022/06/26 06:04:24;;;;;;;;;36.00;34.67;;;;;24.81;51.80;100963.05;110278;1264;19598;-52
2022/06/26 06:06:52;;;;;;;;;33.00;32.33;;;;;24.96;51.48;100969.02;110257;1264;22284;-53
2022/06/26 06:09:19;;;;;;;;;32.33;31.67;;;;;24.95;51.51;100966.39;110224;1264;19033;-52
2022/06/26 06:11:46;;;;;;;;;36.00;32.67;;;;;25.02;51.19;100965.95;110261;1264;18839;-52
2022/06/26 06:14:13;;;;;;;;;36.67;35.00;;;;;24.93;51.20;100965.33;110275;1264;19813;-56
2022/06/26 06:16:41;;;;;;;;;28.00;26.00;;;;;25.14;51.03;100970.45;110230;1265;22344;-55
2022/06/26 06:19:08;;;;;;;;;33.33;32.00;;;;;25.36;50.56;100979.54;110267;1264;19104;-54
2022/06/26 06:21:35;;;;;;;;;33.00;33.00;;;;;25.36;50.27;100978.95;110152;1266;19607;-49
2022/06/26 06:24:02;;;;;;;;;32.33;31.00;;;;;25.40;50.25;100979.70;110215;1264;18750;-52
2022/06/26 06:26:30;;;;;;;;;32.00;31.50;;;;;25.46;49.91;100981.38;110121;1267;18997;-52
2022/06/26 06:28:57;;;;;;;;;33.00;30.33;;;;;25.44;49.91;100985.16;110235;1264;19505;-54
2022/06/26 06:31:24;;;;;;;;;32.67;31.33;;;;;25.50;50.05;100988.45;110312;1264;18777;-53
2022/06/26 06:33:51;;;;;;;;;32.67;29.67;;;;;25.51;49.34;100990.52;110147;1267;19811;-53
2022/06/26 06:36:19;;;;;;;;;29.00;29.00;;;;;25.53;48.87;100994.37;110142;1265;20706;-53
2022/06/26 06:38:46;;;;;;;;;31.00;29.67;;;;;25.52;48.91;100995.77;110274;1264;19332;-51
2022/06/26 06:41:13;;;;;;;;;29.00;28.00;;;;;25.66;48.64;100993.41;110240;1265;20292;-53
2022/06/26 06:43:41;;;;;;;;;29.33;27.33;;;;;25.82;48.61;100998.77;110238;1264;21385;-50
2022/06/26 06:46:08;;;;;;;;;30.00;28.00;;;;;25.81;48.17;100998.40;110280;1264;18990;-49
2022/06/26 06:48:35;;;;;;;;;32.00;28.50;;;;;25.88;47.68;100999.86;110218;1264;19185;-49
2022/06/26 06:51:02;;;;;;;;;25.33;25.00;;;;;25.95;47.11;101000.36;110197;1264;23027;-51
2022/06/26 06:53:30;;;;;;;;;29.00;28.00;;;;;25.95;47.38;100999.80;110182;1264;18749;-51
2022/06/26 06:55:57;;;;;;;;;30.00;28.00;;;;;26.04;47.25;101005.75;110268;1264;18947;-49
2022/06/26 06:58:24;;;;;;;;;29.50;26.50;;;;;26.09;47.42;101008.52;110271;1264;19728;-48
2022/06/26 07:00:52;;;;;;;;;32.50;30.50;;;;;26.07;47.64;101004.50;110233;1265;18676;-52
2022/06/26 07:03:21;;;;;;;;;29.50;28.50;;;;;26.18;47.56;101002.47;110280;1264;30743;-48
2022/06/26 07:05:48;;;;;;;;;30.00;26.33;;;;;26.28;47.45;101007.27;109816;1264;19924;-49
2022/06/26 07:08:16;;;;;;;;;29.00;28.00;;;;;26.34;47.15;101003.57;110267;1263;18724;-50
2022/06/26 07:10:43;;;;;;;;;30.33;30.00;;;;;26.37;46.85;101006.58;110237;1264;20526;-51
2022/06/26 07:13:10;;;;;;;;;34.00;28.67;;;;;26.37;46.43;101007.88;110278;1264;23996;-47
2022/06/26 07:15:38;;;;;;;;;30.33;28.67;;;;;26.32;46.08;101007.96;110272;1264;19972;-51
2022/06/26 07:18:05;;;;;;;;;27.33;25.00;;;;;26.35;45.85;101006.53;110254;1264;22331;-50
2022/06/26 07:20:32;;;;;;;;;25.33;24.00;;;;;26.39;45.68;101007.29;110232;1265;22675;-48
2022/06/26 07:22:59;;;;;;;;;26.67;24.00;;;;;26.43;45.33;101003.05;110224;1264;18771;-50
2022/06/26 07:25:27;;;;;;;;;24.00;23.50;;;;;26.43;45.02;100999.05;110322;1264;18991;-48
2022/06/26 07:27:54;;;;;;;;;24.00;23.67;;;;;26.48;44.93;100999.31;110311;1264;19726;-50
2022/06/26 07:30:21;;;;;;;;;23.00;21.50;;;;;26.47;44.88;100998.35;110216;1264;21027;-51
2022/06/26 07:32:49;;;;;;;;;23.50;22.00;;;;;26.48;44.79;101007.40;110240;1264;18776;-49
2022/06/26 07:35:16;;;;;;;;;23.67;23.00;;;;;26.51;44.82;101006.27;110286;1264;19799;-51
2022/06/26 07:37:46;;;;;;;;;26.00;23.00;;;;;26.57;44.64;101005.00;110223;1265;22798;-49
2022/06/26 07:40:13;;;;;;;;;23.67;22.33;;;;;26.63;44.64;101011.73;110270;1265;19162;-51
2022/06/26 07:42:40;;;;;;;;;20.00;20.00;;;;;26.70;44.45;101006.66;110217;1264;19475;-50
2022/06/26 07:45:08;;;;;;;;;20.33;20.00;;;;;26.72;44.06;101009.80;110229;1265;19366;-51
2022/06/26 07:47:35;;;;;;;;;23.33;21.33;;;;;26.69;44.05;101006.11;110244;1265;22842;-49
2022/06/26 07:50:02;;;;;;;;;21.33;20.33;;;;;26.79;43.94;101004.39;110271;1264;21071;-51
2022/06/26 07:52:29;;;;;;;;;20.33;19.67;;;;;26.89;43.97;101005.70;110300;1265;18873;-52
2022/06/26 07:54:57;;;;;;;;;22.00;20.00;;;;;26.89;44.06;101007.05;110321;1264;18805;-50
2022/06/26 07:57:24;;;;;;;;;19.00;18.33;;;;;26.96;44.07;101006.20;110238;1264;19961;-48
2022/06/26 07:59:51;;;;;;;;;18.00;16.50;;;;;27.00;43.70;101004.94;110194;1265;19788;-52
2022/06/26 08:02:18;;;;;;;;;21.00;19.33;;;;;26.97;43.03;100996.73;110226;1264;18849;-53
2022/06/26 08:04:46;;;;;;;;;18.50;18.50;;;;;27.01;42.82;100997.92;110230;1265;19975;-51
2022/06/26 08:07:13;;;;;;;;;18.00;16.67;;;;;27.01;42.46;100997.99;110314;1264;19035;-50
2022/06/26 08:09:40;;;;;;;;;19.67;19.00;;;;;27.06;42.53;101003.17;110250;1264;18974;-51
2022/06/26 08:12:08;;;;;;;;;19.00;17.67;;;;;27.18;42.57;100996.32;110263;1264;20003;-51
2022/06/26 08:14:35;;;;;;;;;19.00;19.00;;;;;27.15;42.32;100998.09;110238;1264;18823;-51
2022/06/26 08:17:02;;;;;;;;;18.67;18.67;;;;;27.16;41.98;101010.25;110275;1264;22287;-51
2022/06/26 08:19:29;;;;;;;;;19.33;18.33;;;;;27.15;41.40;101002.66;110276;1264;19492;-53
2022/06/26 08:22:03;;;;;;;;;18.33;18.33;;;;;27.09;40.92;100998.61;110280;1263;18806;-49
2022/06/26 08:24:30;;;;;;;;;18.67;18.00;;;;;27.18;40.76;100999.23;110266;1265;18907;-52
2022/06/26 08:26:58;;;;;;;;;19.33;17.67;;;;;27.25;40.43;100992.92;110263;1264;19594;-51
2022/06/26 08:29:25;;;;;;;;;23.00;22.00;;;;;27.24;40.58;100995.68;110248;1265;19006;-51
2022/06/26 08:31:52;;;;;;;;;20.00;19.50;;;;;27.34;40.26;100995.63;110202;1264;18921;-47
2022/06/26 08:34:19;;;;;;;;;19.00;18.33;;;;;27.39;40.18;100997.30;110295;1264;22154;-52
2022/06/26 08:36:47;;;;;;;;;17.00;17.00;;;;;27.33;40.00;100997.30;110274;1264;18874;-50
2022/06/26 08:39:14;;;;;;;;;16.00;15.33;;;;;27.35;39.81;100996.38;110249;1265;22195;-52
2022/06/26 08:41:41;;;;;;;;;21.50;20.50;;;;;27.43;39.82;100995.25;110273;1264;20921;-51
2022/06/26 08:44:08;;;;;;;;;21.00;21.00;;;;;27.43;40.22;100996.35;110256;1265;18686;-50
2022/06/26 08:46:36;;;;;;;;;19.00;19.00;;;;;27.43;40.51;100997.92;110249;1264;22995;-50
2022/06/26 08:49:03;;;;;;;;;22.00;20.00;;;;;27.39;39.95;100999.92;110286;1264;22996;-49
2022/06/26 08:51:30;;;;;;;;;20.67;20.67;;;;;27.40;39.57;101013.09;110235;1265;18835;-56
2022/06/26 08:53:57;;;;;;;;;19.00;19.00;;;;;27.32;39.16;101000.98;110252;1265;22289;-51
2022/06/26 08:56:25;;;;;;;;;20.00;19.00;;;;;27.35;38.87;101003.92;110274;1265;19499;-50
2022/06/26 08:58:53;;;;;;;;;21.00;20.00;;;;;27.36;38.82;101000.90;110261;1265;19490;-51
2022/06/26 09:01:21;;;;;;;;;21.67;20.67;;;;;27.44;39.02;100997.80;110293;1264;18834;-50
2022/06/26 09:03:48;;;;;;;;;20.00;20.00;;;;;27.51;39.18;101000.02;110247;1264;19519;-50
2022/06/26 09:06:15;;;;;;;;;19.00;18.67;;;;;27.55;39.28;100997.85;110229;1265;18758;-50
2022/06/26 09:08:42;;;;;;;;;18.67;17.67;;;;;27.58;39.38;101001.83;110261;1263;18760;-50
2022/06/26 09:11:10;;;;;;;;;22.00;20.50;;;;;27.60;39.42;101001.40;110274;1264;22821;-52
2022/06/26 09:13:37;;;;;;;;;19.33;19.33;;;;;27.61;39.28;101001.56;110269;1264;22747;-52
2022/06/26 09:16:04;;;;;;;;;19.00;19.00;;;;;27.59;38.84;100999.08;110296;1264;18885;-51
2022/06/26 09:18:31;;;;;;;;;17.33;17.00;;;;;27.54;38.24;100998.62;110265;1264;19588;-51
2022/06/26 09:20:59;;;;;;;;;19.00;19.00;;;;;27.56;37.46;101006.11;110263;1264;21245;-50
2022/06/26 09:23:26;;;;;;;;;20.67;20.67;;;;;27.60;37.54;101001.40;110242;1265;19218;-51
2022/06/26 09:25:53;;;;;;;;;20.67;20.67;;;;;27.65;37.58;101000.67;110145;1265;19745;-54
2022/06/26 09:28:20;;;;;;;;;20.67;19.33;;;;;27.67;37.74;100999.23;110240;1264;18986;-50
2022/06/26 09:30:48;;;;;;;;;20.67;20.00;;;;;27.76;37.39;101005.74;110203;1265;18773;-54
2022/06/26 09:33:15;;;;;;;;;19.67;17.33;;;;;27.76;37.18;100998.08;110053;1264;20088;-52
2022/06/26 09:35:42;;;;;;;;;19.33;18.00;;;;;27.76;37.36;100998.16;110232;1264;19012;-52
2022/06/26 09:38:09;;;;;;;;;20.50;19.50;;;;;27.84;37.14;101000.92;110236;1265;19056;-52
2022/06/26 09:40:36;;;;;;;;;74.67;59.33;;;;;27.78;36.79;100998.23;110260;1264;20977;-50
2022/06/26 09:43:04;;;;;;;;;85.67;67.33;;;;;27.81;36.92;100992.84;110219;1264;22047;-51
2022/06/26 09:45:31;;;;;;;;;54.00;45.00;;;;;27.97;37.06;101002.81;110155;1264;19073;-52
2022/06/26 09:47:58;;;;;;;;;34.00;31.00;;;;;27.99;36.86;101007.18;110199;1265;19908;-51
2022/06/26 09:50:26;;;;;;;;;28.00;26.50;;;;;27.99;36.58;100999.21;110172;1264;18944;-51
2022/06/26 09:52:53;;;;;;;;;24.67;23.00;;;;;28.04;36.89;100996.81;110163;1265;18794;-54
2022/06/26 09:55:20;;;;;;;;;20.00;20.00;;;;;28.13;36.76;100999.64;110286;1265;19764;-52
2022/06/26 09:57:47;;;;;;;;;21.00;20.00;;;;;28.10;36.39;100996.10;110155;1265;18694;-52
2022/06/26 10:00:15;;;;;;;;;20.33;19.33;;;;;28.01;36.55;101000.72;110269;1263;18913;-51
2022/06/26 10:08:11;;;;;;;;;16.33;16.00;;;;;28.01;35.29;100998.14;110247;1264;18922;-51
2022/06/26 10:10:39;;;;;;;;;17.33;17.00;;;;;27.96;35.26;100995.15;110271;1264;23166;-54
2022/06/26 10:13:06;;;;;;;;;16.67;16.33;;;;;28.06;34.92;100994.05;110292;1265;18792;-52
2022/06/26 10:15:33;;;;;;;;;21.00;17.50;;;;;28.07;34.71;100991.41;110268;1265;18832;-52
2022/06/26 10:18:01;;;;;;;;;18.50;16.00;;;;;28.14;34.74;100982.17;110259;1264;22088;-52
2022/06/26 10:20:28;;;;;;;;;19.00;17.00;;;;;28.05;35.01;100983.29;110228;1264;20073;-51
2022/06/26 10:22:55;;;;;;;;;16.00;16.00;;;;;28.11;34.99;100981.85;110222;1264;19100;-54
2022/06/26 10:25:22;;;;;;;;;16.00;16.00;;;;;28.13;34.93;100986.30;110260;1264;19620;-52
2022/06/26 10:27:49;;;;;;;;;15.67;15.67;;;;;28.24;34.85;100986.91;110237;1264;20069;-51
2022/06/26 10:30:17;;;;;;;;;18.00;18.00;;;;;28.14;34.32;100989.04;110268;1264;22236;-55
2022/06/26 10:32:44;;;;;;;;;15.33;15.33;;;;;28.03;34.16;100981.30;110127;1264;19457;-52
2022/06/26 10:35:11;;;;;;;;;15.50;15.00;;;;;28.05;34.45;100972.21;110225;1264;18813;-50
2022/06/26 10:37:39;;;;;;;;;15.00;15.00;;;;;28.09;34.50;100978.05;110265;1264;22284;-52
2022/06/26 10:40:06;;;;;;;;;15.00;15.00;;;;;28.11;34.25;100983.05;110284;1264;19615;-52
2022/06/26 10:45:18;;;;;;;;;18.00;17.33;;;;;28.14;33.44;100982.42;110255;1264;19008;-52
2022/06/26 10:47:46;;;;;;;;;15.33;15.00;;;;;28.10;33.67;100981.93;110256;1264;19490;-53
2022/06/26 10:50:13;;;;;;;;;15.00;15.00;;;;;28.11;33.86;100981.60;110257;1264;18760;-52
2022/06/26 10:52:40;;;;;;;;;16.00;15.00;;;;;28.16;34.03;100976.52;110225;1264;18957;-50
2022/06/26 10:55:07;;;;;;;;;15.50;15.00;;;;;28.14;34.00;100979.42;110268;1264;22922;-54
2022/06/26 10:57:35;;;;;;;;;15.00;15.00;;;;;28.17;33.39;100977.23;110211;1265;22865;-51
2022/06/26 11:00:02;;;;;;;;;17.50;15.50;;;;;28.34;33.34;100972.11;110224;1264;18870;-54
2022/06/26 11:02:30;;;;;;;;;17.00;16.00;;;;;28.37;33.60;100978.70;110247;1264;20190;-51
2022/06/26 11:04:57;;;;;;;;;15.00;15.00;;;;;28.30;33.72;100974.88;110258;1264;18788;-51
2022/06/26 11:07:24;;;;;;;;;16.67;16.00;;;;;28.29;33.70;100972.76;110299;1264;22087;-55
2022/06/26 11:09:52;;;;;;;;;15.00;15.00;;;;;28.34;33.92;100976.27;110219;1264;22220;-51
2022/06/26 11:12:19;;;;;;;;;15.67;15.67;;;;;28.29;34.06;100975.55;110003;1265;18947;-51